NWS Home NWS Lubbock West Texas Mesonet Latest Conditions as of 0227 PM, Thu Sep 20, 2018

Latest   N   C   S   Daily Sum   3hrΔ   24hrΔ   Soil Data 
Site Map   24hr Precip   72hr Precip   Google Plot


Station Time of Last Temp Dew Pt. RH Wind Direction Wind Speed Wind Gust Max Wind Max Temp Min Temp Max RH Min RH Altimeter 1HR Rain Today's Rain Solar Rad RFTI
Abernathy 5ENE  02:20 PM 84 60 47% S2030 34 mph 198° @ 1155 AM 85 66 94 45 29.94" 0 0 649 0
Adrian 6WSW  02:20 PM 81 57 43% SW2226 34 mph 203° @ 1110 AM 83 61 88 41 29.95" 0 0 494 0
Aiken 3WSW  02:20 PM 85 61 44% S2127 31 mph 180° @ 1112 AM 86 65 92 42 29.93" 0 0 908 0
Amarillo 15NNW   02:20 PM 91 57 32% SW2126 34 mph 191° @ 0113 PM 91 67 88 31 29.88" 0 0 865 1
Amarillo 7SSE  02:20 PM 87 55 33% S2128 33 mph 177° @ 0144 PM 89 64 95 32 29.92" 0 0 865 0
Amarillo 9NNE  02:20 PM 89 57 34% S2225 33 mph 201° @ 0126 PM 89 67 91 34 29.88" 0 0 771 1
Amherst 1NE  02:20 PM 82 58 47% S1825 28 mph 168° @ 1230 PM 83 62 92 46 29.93" 0 0 450 0
Andrews 2E  02:20 PM 79 60 53% S1422 27 mph 173° @ 0125 PM 83 66 88 49 29.94" 0 0 413 0
Anton 6SSW  02:20 PM 83 60 48% S1826 33 mph 160° @ 0215 PM 84 65 96 47 29.92" 0 0 374 0
Aspermont 3NE  02:20 PM 91 62 40% S1926 30 mph 182° @ 0135 PM 91 68 92 40 29.89" 0 0 889 0
Big Bend NP - Persimmon Gap  02:00 PM 79 65 64% SE1113 18 mph 168° @ 0152 PM 79 66 93 63 29.95" 0 0 324 0
Big Lake 1WNW  02:20 PM 75 69 83% S1821 33 mph 174° @ 1230 PM 80 68 93 62 29.96" 0 0 267 0
Bootleg 11WNW  02:20 PM 79 58 48% S1519 27 mph 185° @ 0847 AM 79 59 89 48 29.98" 0 0 719 0
Boys Ranch 1WSW  02:20 PM 89 57 33% SW1823 33 mph 188° @ 0214 AM 92 67 77 30 29.87" 0 0 724 0
Brownfield 2S  02:20 PM 83 59 46% S2027 29 mph 189° @ 1110 AM 85 65 92 43 29.92" 0 0 312 0
Canadian 6E  02:20 PM 91 63 40% S1721 34 mph 196° @ 1008 AM 92 68 85 36 29.84" 0 0 849 0
Caprock Canyons State Park  01:55 PM 85 62 46% S1723 33 mph 172° @ 0112 PM 86 69 86 44 29.92" 0 0 375 0
Childress 2NNE  02:20 PM 92 61 38% S1727 31 mph 182° @ 0140 PM 92 69 85 38 29.88" 0 0 827 0
Clarendon 2WSW  02:20 PM 89 56 34% S2227 30 mph 183° @ 0105 PM 89 67 87 34 29.90" 0 0 902 0
Claude 12SW  02:20 PM 86 59 40% S2126 30 mph 180° @ 0129 AM 87 67 87 37 29.92" 0 0 761 0
Clyde 2WNW  02:20 PM 87 68 53% S1316 25 mph 179° @ 0146 PM 88 68 98 50 29.94" 0 0 901 0
Colorado City 5NW  02:20 PM 82 68 62% S1113 28 mph 155° @ 1221 PM 88 68 95 48 29.92" 0 0 362 0
Coyanosa 2N  02:20 PM 82 63 54% SE1417 22 mph 133° @ 0259 AM 82 68 84 54 29.90" 0 0 439 0
Crane 1NNW   02:20 PM 84 64 52% S1720 31 mph 172° @ 1148 AM 84 71 86 50 29.91" 0 0 765 0
Crowell 1E  02:20 PM 92 67 44% SW1724 33 mph 198° @ 0136 PM 92 71 85 44 29.88" 0 0 980 0
Dell City  02:20 PM 73 67 81% SE56 12 mph 148° @ 1201 AM 74 65 93 71 29.93" 0.02 0.13 215 0
Denver City 7WNW  02:20 PM 83 58 44% S1420 27 mph 161° @ 1145 AM 83 59 95 44 29.92" 0 0 643 0
Dimmitt 2NE  02:20 PM 84 58 43% S2329 32 mph 171° @ 0200 PM 84 62 94 43 29.93" 0 0 912 0
Dora NM 2SW  02:20 PM 80 59 51% S1520 25 mph 179° @ 1040 AM 80 60 93 51 29.95" 0 0 500 0
Dozier 3W  02:20 PM 91 62 39% S2030 31 mph 198° @ 0215 PM 93 68 88 36 29.89" 0 0 871 0
Earth 9WSW  02:20 PM 82 61 48% S1925 28 mph 179° @ 1213 PM 84 62 95 45 29.94" 0 0 460 0
Endee NM 2SW  02:20 PM 82 59 46% S2123 28 mph 200° @ 1056 AM 83 64 82 45 29.92" 0 0 612 0
Estelline 3SSE  02:20 PM 93 63 37% S1528 29 mph 202° @ 0137 PM 93 70 83 36 29.86" 0 0 844 0
Floydada 2NNE  02:20 PM 87 59 40% S1924 33 mph 182° @ 1240 PM 87 66 92 40 29.93" 0 0 896 0
Fluvanna 3WNW  02:20 PM 85 62 47% S2228 34 mph 179° @ 1215 PM 86 67 93 43 29.92" 0 0 764 0
Fort Chadbourne  02:20 PM 83 68 60% S1316 23 mph 161° @ 1206 PM 85 67 100 58 29.93" 0 0 787 0
Fort Lancaster  02:20 PM 79 69 72% SE1317 28 mph 142° @ 1129 AM 81 70 93 67 29.93" 0 0 311 0
Fort Lewis CO  02:20 PM 71 40 32% W1621 26 mph 298° @ 0103 PM 71 47 96 25 30.16" 0 0.02 907 0
Fort McKavett  02:20 PM 81 67 62% S1215 26 mph 160° @ 0207 PM 84 70 100 57 29.95" 0 0 366 0
Friona 2NE  02:20 PM 80 58 50% S1823 30 mph 176° @ 0125 PM 82 61 91 44 29.95" 0 0 478 0
Fritch 1WNW  02:20 PM 90 56 31% S2228 37 mph 196° @ 0204 PM 90 68 83 29 29.86" 0 0 847 2
Gail 2ESE  02:20 PM 87 60 42% S2029 34 mph 165° @ 1220 PM 87 66 92 42 29.90" 0 0 954 0
Goodlett 3W  02:20 PM 90 61 39% S1928 31 mph 178° @ 1235 PM 91 70 79 38 29.86" 0 0 521 0
Goodnight  02:20 PM 91 60 35% S2428 32 mph 191° @ 0212 PM 91 66 88 35 29.92" 0 0 921 2
Graham 5SSW  02:20 PM 85 58 42% S2332 38 mph 162° @ 0210 PM 85 67 92 42 29.90" 0 0 1034 0
Guadalupe Mtns Natl Park  01:10 PM 69 58 73% SW911 19 mph 232° @ 0653 AM 69 62 94 66 30.06" 0 0 346 0
Guthrie 10WSW  02:20 PM 91 60 37% S1627 30 mph 190° @ 0155 PM 91 69 86 37 29.88" 0 0 927 0
Happy 1E  02:20 PM 85 59 42% S2428 32 mph 181° @ 0158 PM 86 64 93 39 29.93" 0 0 882 0
Hart 3N  02:20 PM 84 58 42% S1827 28 mph 193° @ 1240 PM 84 64 94 42 29.93" 0 0 907 0
Haskell 1NW  02:20 PM 88 64 46% S1519 25 mph 182° @ 0130 PM 89 70 88 46 29.89" 0 0 541 0
Hereford 2NW  02:20 PM 83 53 37% S1622 27 mph 186° @ 0150 PM 84 63 88 37 29.92" 0 0 433 0
Hobbs NM 5NW  02:20 PM 77 60 56% S1113 24 mph 176° @ 1124 AM 78 64 95 54 29.96" 0 0 379 0
Jayton 1SSE  02:20 PM 88 60 41% SE1724 28 mph 195° @ 1255 PM 88 68 89 41 29.90" 0 0 719 0
Junction 1SSW  02:20 PM 86 67 54% S1318 23 mph 189° @ 1041 AM 86 73 94 53 29.93" 0 0 274 0
Knox City 3NW  02:20 PM 92 65 44% S1621 30 mph 186° @ 1240 PM 92 70 91 43 29.89" 0 0 809 0
Lake Alan Henry 1NW  02:20 PM 86 64 49% S1216 27 mph 192° @ 1218 PM 87 71 87 47 29.90" 0 0 872 0
Lamesa 2SE  02:20 PM 84 60 46% S1826 28 mph 189° @ 1050 AM 84 66 94 45 29.92" 0 0 433 0
Lesley 2S  02:20 PM 91 64 40% S2027 30 mph 184° @ 0210 PM 92 68 87 38 29.87" 0 0 928 0
Levelland 4S  02:20 PM 82 58 46% S1622 30 mph 162° @ 0115 PM 82 64 92 46 29.93" 0 0 517 0
Lomax 1SSE  02:20 PM 82 64 56% S2124 35 mph 177° @ 0215 PM 86 68 91 46 29.91" 0 0 340 0
Lubbock 3WNW TTU  02:20 PM 85 59 44% S1422 26 mph 172° @ 1205 PM 86 67 92 42 29.93" 0 0 461 0
McCamey 1SSW  02:20 PM 82 66 60% SE1417 27 mph 149° @ 1106 AM 83 71 89 58 29.92" 0 0 421 0
McLean 1E  02:20 PM 87 58 39% S2128 32 mph 178° @ 0155 PM 88 66 87 39 29.89" 0 0 743 0
Memphis 1NE  02:20 PM 90 59 37% S1623 26 mph 193° @ 0150 PM 90 65 92 37 29.87" 0 0 891 0
Menard 2NW   02:20 PM 83 68 61% SW1015 22 mph 171° @ 1212 PM 85 68 100 57 29.94" 0 0 472 0
Mertzon 3NNE  02:06 PM 81 67 61% S1721 27 mph 162° @ 0202 PM 85 69 97 56 29.94" 0 0 548 0
Morton 1ENE  02:20 PM 82 58 45% S1622 27 mph 184° @ 1135 AM 83 62 93 45 29.93" 0 0 658 0
Muleshoe 2SSW  02:20 PM 79 60 55% S1525 28 mph 178° @ 0935 AM 80 60 92 54 29.94" 0 0 474 0
New Home  02:20 PM 84 61 47% S1722 28 mph 195° @ 1107 AM 85 66 94 45 29.94" 0 0 242 0
Northfield 1S  02:20 PM 89 60 38% S2031 31 mph 190° @ 0220 PM 91 70 82 36 29.87" 0 0 428 0
O'Donnell 1N  02:20 PM 82 55 40% S1422 28 mph 187° @ 0200 PM 84 66 89 40 29.92" 0 0 310 0
Odell 4ENE  02:20 PM 92 66 43% S1923 30 mph 197° @ 1230 PM 93 72 83 41 29.88" 0 0 792 0
Olton 6S  02:20 PM 83 57 42% S2029 32 mph 187° @ 1135 AM 84 64 92 42 29.93" 0 0 411 0
Paducah 10SW  02:20 PM 90 61 40% S2027 28 mph 176° @ 0150 PM 90 66 93 39 29.89" 0 0 889 0
Palo Duro 4E (JA Ranch)  02:20 PM 91 58 33% S2023 35 mph 180° @ 0139 PM 93 63 94 32 29.88" 0 0 879 1
Palo Duro Canyon SP Floor  02:20 PM 90 59 35% S1115 26 mph 182° @ 0138 PM 92 70 80 33 29.88" 0 0 810 0
Palo Duro Canyon State Park Rim  02:20 PM 88 57 36% S1826 31 mph 187° @ 1235 PM 89 66 86 33 29.92" 0 0 888 0
Pampa 2E  02:20 PM 87 57 37% S1925 31 mph 176° @ 0205 PM 88 67 88 35 29.90" 0 0 738 0
Panhandle 1SSW  02:20 PM 90 57 33% S2327 34 mph 180° @ 0113 PM 90 66 86 33 29.92" 0 0 924 2
Plains 3N  02:20 PM 81 60 51% S1723 30 mph 161° @ 0155 PM 81 61 97 50 29.93" 0 0 247 0
Plainview 1S  02:20 PM 84 61 48% S1724 28 mph 192° @ 1055 AM 84 66 94 48 29.92" 0 0 624 0
Post 1NE  02:20 PM 87 60 41% S2026 30 mph 170° @ 1235 PM 87 69 85 40 29.90" 0 0 921 0
Ralls 1SE  02:20 PM 87 56 37% S2127 34 mph 194° @ 1220 PM 87 67 89 37 29.93" 0 0 905 0
Reese Center  02:20 PM 82 59 46% S1722 29 mph 171° @ 0140 PM 82 65 94 45 29.93" 0 0 875 0
Roaring Springs 3N  02:20 PM 86 64 51% S2027 29 mph 180° @ 1245 PM 86 65 98 51 29.91" 0 0 804 0
Rotan 5W  02:20 PM 88 64 45% S1822 32 mph 169° @ 0208 PM 89 69 88 44 29.91" 0 0 840 0
San Angelo 7NW  02:20 PM 85 65 53% S1526 26 mph 161° @ 0220 PM 85 69 91 52 29.92" 0 0 656 0
Seagraves 1SW  02:20 PM 83 61 50% S1622 27 mph 169° @ 1100 AM 84 62 99 48 --0 0 493 0
Seminole 2NNE  02:20 PM 76 64 70% S1318 32 mph 186° @ 0200 PM 83 63 94 45 29.92" 0 0 528 0
Seymour 3NW  02:20 PM 91 66 47% S1721 27 mph 181° @ 0200 PM 91 71 88 47 29.88" 0 0 941 0
Sierra Blanca 1SSE  02:20 PM 68 64 85% SE23 26 mph 173° @ 0144 PM 75 65 92 64 29.99" 0.18 0.18 392 0
Silverton 7ESE  02:20 PM 86 58 41% S2126 32 mph 207° @ 1005 AM 87 67 87 41 29.92" 0 0 867 0
Slaton 2NE  02:20 PM 84 58 42% S1926 33 mph 193° @ 1135 AM 85 67 90 42 29.92" 0 0 627 0
Snyder 3E  02:20 PM 86 64 51% SE1726 30 mph 157° @ 0200 PM 86 68 98 50 29.91" 0 0 399 0
Snyder 3SSW  02:20 PM 73 67 83% SW910 31 mph 220° @ 0214 PM 85 68 94 52 29.93" 0.02 0.02 263 0
Spur 1W  02:20 PM 87 60 42% S1419 26 mph 187° @ 1255 PM 87 66 90 42 29.90" 0 0 643 0
St. Lawrence 5SW  02:20 PM 81 63 56% S2331 34 mph 169° @ 0120 PM 83 68 93 51 29.94" 0 0 404 0
Stamford 5ESE  02:20 PM 87 68 53% S1822 25 mph 185° @ 1124 AM 90 69 95 48 29.90" 0 0 311 0
Sterling City 4WSW  01:50 PM 81 67 64% SE1216 25 mph 159° @ 1044 AM 83 67 99 59 29.94" 0 0.13 159 0
Stinnett 1NNW  02:20 PM 89 53 29% SW2630 35 mph 209° @ 0120 PM 90 67 86 29 29.88" 0 0 858 3
Sundown 8WSW  02:20 PM 84 59 45% S1927 29 mph 167° @ 0125 PM 84 62 96 45 29.93" 0 0.01 936 0
Sweetwater 11SW   02:20 PM 85 66 53% S1624 29 mph 178° @ 1236 PM 85 69 100 53 29.95" 0 0 751 0
Tahoka 3NNE  02:20 PM 84 60 43% S1620 28 mph 172° @ 0120 PM 86 66 91 42 29.92" 0 0 274 0
Tarzan 2WNW  02:20 PM 85 63 49% S1723 30 mph 163° @ 1010 AM 85 68 93 47 29.92" 0 0 294 0
Tatum NM 2SW  02:20 PM 79 59 52% S1825 27 mph 159° @ 1200 PM 82 60 92 49 29.94" 0 0 351 0
Throckmorton 1SW  02:20 PM 90 69 51% S1115 22 mph 156° @ 0159 PM 91 70 93 49 29.90" 0 0 633 0
Tulia 2ENE  02:20 PM 84 60 46% S2130 31 mph 196° @ 1025 AM 85 65 90 43 29.93" 0 0 793 0
Turkey 2WSW  02:20 PM 86 62 46% S1623 29 mph 170° @ 1205 PM 87 66 90 44 29.89" 0 0 411 0
Umbarger 3NNE  02:20 PM 88 57 35% S2426 33 mph 211° @ 0134 PM 88 64 92 35 29.92" 0 0 849 2
Van Horn 3ENE  02:20 PM 78 62 57% S1619 24 mph 183° @ 0118 PM 78 67 87 57 29.95" 0 0 572 0
Vigo Park  02:20 PM 87 60 40% S1619 34 mph 178° @ 0137 PM 87 64 94 40 29.93" 0 0 810 0
Wall 2E  02:20 PM 85 68 57% S1620 25 mph 154° @ 0158 PM 85 68 98 57 29.93" 0 0 577 0
Weinert 2NNE  02:20 PM 90 67 46% S1518 27 mph 213° @ 0203 PM 91 73 82 45 29.89" 0 0 919 0
Welch  02:20 PM 84 63 49% S1519 31 mph 171° @ 0108 PM 85 66 96 48 29.93" 0 0 309 0
White River Lake 6NW  02:20 PM 85 59 44% S1725 31 mph 167° @ 0115 PM 88 67 90 40 29.91" 0 0 210 0
Wolfforth 6SSW  02:20 PM 84 60 47% S1825 28 mph 175° @ 1115 AM 85 65 95 46 29.93" 0 0 324 0

West Texas Mesonet Home   Site Map/Menu  NWS Lubbock Soil Data  Daily Summary Page  24hr Precip  72hr Precip  Google Plot